Time;durP1;ratioP1;P1;durP2;ratioP2;P2;SDS_P1;SDS_P2;PMS_P1;PMS_P2;Temp;Humidity;BMP_temperature;BMP_pressure;BME280_temperature;BME280_humidity;BME280_pressure;Samples;Min_cycle;Max_cycle;Signal;HPM_P1;HPM_P2
2023/06/28 00:01:00;;;;;;;8.75;8.05;;;;;;;15.80;100.00;95675.13;4993486;28;20446;-91
2023/06/28 00:03:26;;;;;;;8.15;7.45;;;;;;;15.78;100.00;95707.66;4986235;28;20028;-88
2023/06/28 00:05:52;;;;;;;9.70;8.80;;;;;;;15.85;100.00;95710.34;5005193;28;20033;-87
2023/06/28 00:08:17;;;;;;;12.07;9.50;;;;;;;15.82;100.00;95699.28;4984633;28;20108;-88
2023/06/28 00:10:42;;;;;;;10.45;9.40;;;;;;;15.87;100.00;95692.66;4977549;28;20056;-88
2023/06/28 00:13:08;;;;;;;9.52;8.45;;;;;;;15.90;100.00;95693.09;4989850;28;20030;-88
2023/06/28 00:15:33;;;;;;;11.88;8.85;;;;;;;15.87;100.00;95697.88;4975301;28;20036;-88
2023/06/28 00:18:02;;;;;;;14.55;9.73;;;;;;;15.88;100.00;95734.28;4992509;28;20041;-88
2023/06/28 00:20:28;;;;;;;10.77;9.68;;;;;;;15.93;100.00;95744.19;4986737;28;20063;-89
2023/06/28 00:22:54;;;;;;;11.68;8.90;;;;;;;15.80;100.00;95722.13;4988577;28;20064;-90
2023/06/28 00:25:20;;;;;;;10.05;9.13;;;;;;;15.83;100.00;95734.00;4987300;28;20567;-91
2023/06/28 00:27:45;;;;;;;9.85;8.95;;;;;;;15.86;100.00;95730.25;4974876;28;20116;-89
2023/06/28 00:30:11;;;;;;;9.00;8.30;;;;;;;15.86;100.00;95710.13;4991216;28;20065;-91
2023/06/28 00:32:37;;;;;;;10.18;9.10;;;;;;;15.84;100.00;95712.13;4987445;28;20473;-89
2023/06/28 00:35:03;;;;;;;10.82;9.93;;;;;;;15.75;100.00;95721.91;4985234;28;20021;-89
2023/06/28 00:37:28;;;;;;;11.65;9.73;;;;;;;15.64;100.00;95751.06;4998343;28;20037;-90
2023/06/28 00:39:54;;;;;;;11.43;10.27;;;;;;;15.65;100.00;95788.47;5004290;28;20497;-89
2023/06/28 00:42:20;;;;;;;10.68;8.85;;;;;;;15.65;100.00;95798.91;4984680;28;20038;-91
2023/06/28 00:44:46;;;;;;;10.20;8.93;;;;;;;15.62;100.00;95826.19;4974613;28;20334;-90
2023/06/28 00:47:11;;;;;;;13.88;9.48;;;;;;;15.62;100.00;95828.00;4997615;28;20052;-90
2023/06/28 00:49:37;;;;;;;11.13;10.18;;;;;;;15.56;100.00;95834.75;4991364;28;20033;-90
2023/06/28 00:52:04;;;;;;;17.02;9.80;;;;;;;15.49;100.00;95825.19;4984171;28;20522;-91
2023/06/28 00:54:29;;;;;;;10.75;9.70;;;;;;;15.40;100.00;95841.91;4987197;28;20040;-89
2023/06/28 00:56:55;;;;;;;10.82;9.75;;;;;;;15.36;100.00;95854.50;4992950;28;20026;-88
2023/06/28 00:59:21;;;;;;;11.65;10.52;;;;;;;15.31;100.00;95872.50;4999881;28;20032;-86
2023/06/28 01:01:49;;;;;;;9.73;8.93;;;;;;;15.20;100.00;95878.94;5014639;28;20022;-86
2023/06/28 01:04:15;;;;;;;10.65;9.85;;;;;;;15.22;100.00;95897.03;4979915;28;20025;-88
2023/06/28 01:06:44;;;;;;;11.20;9.35;;;;;;;15.36;100.00;95906.72;4987655;28;20033;-90
2023/06/28 01:09:10;;;;;;;;;;;;;;;15.40;100.00;95894.13;5003631;28;20036;-88
2023/06/28 01:11:36;;;;;;;12.30;9.95;;;;;;;15.38;100.00;95870.00;4992723;28;19913;-90
2023/06/28 01:14:02;;;;;;;10.57;9.75;;;;;;;15.26;100.00;95887.88;4974985;28;20022;-92
2023/06/28 01:16:28;;;;;;;13.82;9.40;;;;;;;15.13;100.00;95909.34;4989069;28;20041;-87
2023/06/28 01:18:55;;;;;;;10.77;9.88;;;;;;;15.09;100.00;95938.56;5006833;28;20057;-84
2023/06/28 01:21:22;;;;;;;10.75;9.75;;;;;;;15.04;100.00;95933.88;5017781;28;20588;-83
2023/06/28 01:23:48;;;;;;;13.27;11.18;;;;;;;14.99;100.00;95945.81;4992463;28;20022;-83
2023/06/28 01:26:14;;;;;;;10.68;9.38;;;;;;;14.96;100.00;95960.00;5004817;28;20038;-83
2023/06/28 01:28:40;;;;;;;11.57;10.38;;;;;;;15.09;100.00;95975.91;4997652;28;20481;-87
2023/06/28 01:31:06;;;;;;;13.25;11.18;;;;;;;15.02;100.00;95976.78;4969331;28;20405;-85
2023/06/28 01:33:32;;;;;;;12.88;9.85;;;;;;;15.01;100.00;95986.41;4989450;28;20037;-85
2023/06/28 01:36:16;;;;;;;13.75;10.70;;;;;;;15.13;100.00;95981.59;5006903;28;20026;-88
2023/06/28 01:38:42;;;;;;;11.40;10.40;;;;;;;15.21;100.00;95966.69;4991181;28;20422;-86
2023/06/28 01:41:08;;;;;;;12.60;11.30;;;;;;;15.08;100.00;95937.75;4989684;28;20021;-87
2023/06/28 01:43:34;;;;;;;11.77;10.55;;;;;;;15.07;100.00;95943.97;4997274;28;20480;-88
2023/06/28 01:46:00;;;;;;;11.63;9.52;;;;;;;15.07;100.00;95941.34;4986741;28;20022;-89
2023/06/28 01:48:25;;;;;;;10.07;9.07;;;;;;;15.05;100.00;95930.28;4984762;28;20095;-85
2023/06/28 01:57:52;;;;;;;11.10;10.07;;;;;;;15.05;100.00;95891.16;4997108;28;20530;-89
2023/06/28 02:04:02;;;;;;;13.60;10.80;;;;;;;14.74;100.00;95945.13;4981808;28;20523;-89
2023/06/28 02:12:37;;;;;;;10.57;9.57;;;;;;;14.78;100.00;95891.66;4971336;28;20129;-90
2023/06/28 02:15:05;;;;;;;11.35;10.35;;;;;;;14.81;100.00;95901.72;4965901;28;20809;-90
2023/06/28 02:17:31;;;;;;;12.73;11.25;;;;;;;14.76;100.00;95919.72;4948197;28;20045;-90
2023/06/28 02:19:59;;;;;;;11.05;9.95;;;;;;;14.83;100.00;95941.53;4979001;28;20102;-87
2023/06/28 02:22:26;;;;;;;11.67;10.57;;;;;;;14.89;100.00;95938.22;4976227;28;20045;-88
2023/06/28 02:24:52;;;;;;;12.20;10.68;;;;;;;14.77;100.00;95922.13;4960303;28;20053;-88
2023/06/28 02:27:22;;;;;;;10.90;9.95;;;;;;;14.72;100.00;95940.09;4978567;28;20047;-88
2023/06/28 02:29:48;;;;;;;11.70;10.60;;;;;;;14.60;100.00;95953.69;4972754;28;20634;-85
2023/06/28 02:32:13;;;;;;;11.52;10.27;;;;;;;14.47;100.00;95956.84;5009295;28;20034;-83
2023/06/28 02:34:39;;;;;;;12.77;11.40;;;;;;;14.48;100.00;95989.75;5140029;23;20057;-86
2023/06/28 02:37:04;;;;;;;11.98;10.73;;;;;;;14.51;100.00;96005.03;5019798;28;20037;-88
2023/06/28 02:39:30;;;;;;;10.13;9.20;;;;;;;14.74;100.00;96005.94;5020096;28;20893;-87
2023/06/28 02:41:55;;;;;;;12.02;10.45;;;;;;;14.72;100.00;95986.22;5015202;28;20083;-85
2023/06/28 02:44:21;;;;;;;12.48;10.50;;;;;;;14.63;100.00;95969.00;5020492;28;20097;-86
2023/06/28 02:46:46;;;;;;;13.02;10.15;;;;;;;14.50;100.00;95973.94;5003689;28;20056;-87
2023/06/28 02:49:12;;;;;;;12.10;10.82;;;;;;;14.47;100.00;95982.09;5022803;28;20032;-87
2023/06/28 02:51:37;;;;;;;12.05;10.75;;;;;;;14.55;100.00;95984.66;5023135;28;20117;-87
2023/06/28 02:54:03;;;;;;;11.88;10.68;;;;;;;14.65;100.00;95975.66;5016783;28;20017;-86
2023/06/28 02:56:28;;;;;;;11.35;10.45;;;;;;;14.61;100.00;95947.47;5016721;28;20189;-86
2023/06/28 02:58:54;;;;;;;11.43;10.50;;;;;;;14.61;100.00;95931.84;5011976;28;20049;-87
2023/06/28 03:01:22;;;;;;;13.23;12.02;;;;;;;14.37;100.00;95940.59;5014484;28;20084;-88
2023/06/28 03:03:48;;;;;;;11.60;10.70;;;;;;;14.39;100.00;95954.25;5020002;28;20429;-88
2023/06/28 03:06:16;;;;;;;15.35;10.68;;;;;;;14.60;100.00;95971.94;5022049;28;20026;-88
2023/06/28 03:08:42;;;;;;;15.68;14.27;;;;;;;14.51;100.00;95976.38;5008549;28;20029;-86
2023/06/28 03:11:08;;;;;;;13.38;11.77;;;;;;;14.53;100.00;96036.16;5014152;28;20030;-87
2023/06/28 03:13:33;;;;;;;12.10;11.20;;;;;;;14.80;100.00;96035.75;5020648;28;20588;-86
2023/06/28 03:15:59;;;;;;;11.55;10.48;;;;;;;14.85;100.00;95996.91;5010816;28;20040;-87
2023/06/28 03:18:25;;;;;;;12.75;10.43;;;;;;;14.85;100.00;95952.56;5002754;28;20037;-86
2023/06/28 03:20:51;;;;;;;10.77;9.80;;;;;;;14.94;100.00;95908.97;5008871;28;20099;-87
2023/06/28 03:23:16;;;;;;;11.23;10.13;;;;;;;14.97;100.00;95866.91;5016503;28;20056;-88
2023/06/28 03:25:42;;;;;;;12.30;10.98;;;;;;;15.09;100.00;95827.16;5008712;28;20065;-88
2023/06/28 03:28:07;;;;;;;11.50;10.52;;;;;;;15.26;100.00;95801.72;5020748;28;20040;-87
2023/06/28 03:30:33;;;;;;;11.23;10.20;;;;;;;15.33;100.00;95779.16;5012387;28;20052;-88
2023/06/28 03:32:59;;;;;;;9.20;8.50;;;;;;;15.96;100.00;95717.72;5012526;28;20120;-86
2023/06/28 03:35:25;;;;;;;13.70;8.60;;;;;;;16.98;100.00;95353.44;5010895;28;20050;-88
2023/06/28 03:37:54;;;;;;;9.38;8.20;;;;;;;17.66;100.00;95029.19;5016129;28;20070;-86
2023/06/28 03:40:20;;;;;;;7.65;6.88;;;;;;;18.00;100.00;94881.94;5040113;28;20056;-86
2023/06/28 03:42:47;;;;;;;10.65;7.93;;;;;;;18.42;100.00;94807.63;5008014;28;20042;-81
2023/06/28 03:45:14;;;;;;;18.15;16.63;;;;;;;18.70;100.00;94761.63;5014080;28;20104;-81
2023/06/28 03:47:39;;;;;;;9.85;8.85;;;;;;;18.93;100.00;94751.19;4999892;28;20576;-82
2023/06/28 03:50:05;;;;;;;13.00;11.98;;;;;;;19.30;100.00;94728.09;5018641;28;20029;-81
2023/06/28 03:52:31;;;;;;;14.88;9.77;;;;;;;19.41;100.00;94712.38;5019014;28;20057;-82
2023/06/28 03:54:56;;;;;;;9.95;8.80;;;;;;;19.62;100.00;94639.22;5011576;28;20088;-81
2023/06/28 03:57:22;;;;;;;10.40;8.80;;;;;;;19.67;100.00;94623.53;5014270;28;20115;-81
2023/06/28 03:59:47;;;;;;;7.20;6.57;;;;;;;19.83;100.00;94618.34;5019333;28;20029;-81
2023/06/28 04:02:13;;;;;;;7.55;6.95;;;;;;;19.92;100.00;94618.75;5021261;28;20024;-81
2023/06/28 04:04:39;;;;;;;6.95;6.35;;;;;;;20.03;100.00;94612.63;5007215;28;20113;-81
2023/06/28 04:07:05;;;;;;;7.45;6.95;;;;;;;20.28;100.00;94614.91;5001301;28;20128;-81
2023/06/28 04:09:31;;;;;;;7.60;6.88;;;;;;;20.41;100.00;94611.97;5001405;28;20037;-81
2023/06/28 04:14:27;;;;;;;9.00;6.07;;;;;;;20.79;100.00;94612.00;4973613;28;20665;-83
2023/06/28 04:16:52;;;;;;;7.75;7.15;;;;;;;20.95;100.00;94616.44;4961942;28;20041;-83
2023/06/28 04:19:18;;;;;;;7.25;6.55;;;;;;;20.94;100.00;94614.84;4981404;28;20064;-83
2023/06/28 04:21:43;;;;;;;8.57;7.63;;;;;;;21.20;100.00;94610.72;4986002;28;20018;-83
2023/06/28 04:24:09;;;;;;;6.95;6.25;;;;;;;21.57;100.00;94618.81;4962712;28;20019;-83
2023/06/28 04:26:35;;;;;;;8.10;7.40;;;;;;;21.50;100.00;94615.59;4956662;28;20045;-83
2023/06/28 04:29:00;;;;;;;7.63;6.93;;;;;;;21.52;100.00;94619.56;4938386;28;20034;-82
2023/06/28 04:31:26;;;;;;;9.07;7.35;;;;;;;22.23;100.00;94599.19;4988959;28;20119;-82
2023/06/28 04:33:54;;;;;;;7.20;6.45;;;;;;;22.65;100.00;94607.16;4958873;28;20036;-83
2023/06/28 04:36:21;;;;;;;9.40;8.65;;;;;;;22.88;100.00;94604.19;4953862;28;20040;-83
2023/06/28 04:38:52;;;;;;;8.70;7.95;;;;;;;23.14;100.00;94594.56;4973895;28;20034;-83
2023/06/28 04:41:27;;;;;;;7.95;7.32;;;;;;;23.24;100.00;94607.81;4994895;28;20026;-82
2023/06/28 04:43:54;;;;;;;8.20;7.50;;;;;;;23.57;100.00;94607.44;4985147;28;20026;-82
2023/06/28 04:46:22;;;;;;;8.45;7.75;;;;;;;23.27;100.00;94615.22;4952490;28;20108;-82
2023/06/28 04:48:48;;;;;;;9.00;8.40;;;;;;;23.65;100.00;94611.44;4974027;28;20069;-82
2023/06/28 04:51:14;;;;;;;9.02;8.43;;;;;;;24.16;100.00;94609.72;4974156;28;20034;-83
2023/06/28 04:53:39;;;;;;;8.57;7.97;;;;;;;23.74;100.00;94606.44;4991826;28;20057;-82
2023/06/28 04:56:05;;;;;;;9.02;8.23;;;;;;;24.42;100.00;94605.22;5002575;28;20034;-83
2023/06/28 04:58:30;;;;;;;9.45;8.55;;;;;;;24.94;100.00;94592.50;4959683;28;20034;-83
2023/06/28 05:00:56;;;;;;;9.63;8.80;;;;;;;24.86;100.00;94597.53;4975323;28;20499;-83
2023/06/28 05:03:26;;;;;;;9.40;8.50;;;;;;;25.28;100.00;94595.31;5008656;28;20045;-83
2023/06/28 05:05:53;;;;;;;8.40;7.68;;;;;;;25.58;100.00;94605.03;4976548;28;20026;-83
2023/06/28 05:08:18;;;;;;;9.35;7.82;;;;;;;25.09;100.00;94603.06;4984210;28;20120;-82
2023/06/28 05:10:43;;;;;;;8.63;7.82;;;;;;;25.75;100.00;94613.44;4982424;28;20163;-83
2023/06/28 05:13:09;;;;;;;8.13;7.47;;;;;;;26.43;93.91;94603.72;4983624;28;20045;-83
2023/06/28 05:15:35;;;;;;;8.55;7.75;;;;;;;26.36;96.21;94611.22;5003368;28;20029;-83
2023/06/28 05:18:00;;;;;;;9.85;9.15;;;;;;;25.98;96.42;94610.13;5017664;28;20079;-83
2023/06/28 05:20:26;;;;;;;9.02;8.23;;;;;;;27.01;87.37;94604.56;5013226;28;20025;-85
2023/06/28 05:23:07;;;;;;;10.35;9.65;;;;;;;27.01;83.65;94607.22;4993797;28;20025;-86
2023/06/28 05:25:33;;;;;;;9.18;8.07;;;;;;;27.44;83.46;94613.44;5007177;28;20026;-84
2023/06/28 05:27:58;;;;;;;10.77;7.80;;;;;;;28.09;78.39;94611.06;5022471;28;20075;-84
2023/06/28 05:30:24;;;;;;;8.88;8.18;;;;;;;28.17;78.87;94615.72;5022168;28;20401;-84
2023/06/28 05:32:49;;;;;;;8.82;8.05;;;;;;;29.13;71.25;94611.50;5039834;28;20025;-85
2023/06/28 05:35:15;;;;;;;7.80;7.18;;;;;;;29.10;70.68;94617.44;5006027;28;20029;-85
2023/06/28 05:37:41;;;;;;;8.55;7.75;;;;;;;29.16;71.61;94616.25;5021198;28;20033;-84
2023/06/28 05:40:10;;;;;;;8.48;7.88;;;;;;;28.99;75.84;94618.72;5005917;28;20078;-83
2023/06/28 05:42:35;;;;;;;9.32;8.40;;;;;;;30.38;67.44;94617.25;5005288;28;20368;-84
2023/06/28 05:45:01;;;;;;;9.32;8.63;;;;;;;28.97;71.46;94610.19;5028594;28;20020;-85
2023/06/28 05:47:26;;;;;;;8.93;8.32;;;;;;;28.99;70.67;94610.72;5039701;28;20035;-83
2023/06/28 05:49:51;;;;;;;9.32;8.63;;;;;;;29.28;69.58;94617.38;5022111;28;20078;-86
2023/06/28 05:52:17;;;;;;;10.98;9.77;;;;;;;27.56;82.09;94613.03;5028931;28;20021;-86
2023/06/28 05:54:42;;;;;;;9.40;8.57;;;;;;;28.37;77.74;94614.63;5019536;28;20871;-86
2023/06/28 05:57:08;;;;;;;9.55;8.70;;;;;;;30.77;65.48;94620.88;5005558;28;20027;-86
2023/06/28 05:59:33;;;;;;;9.25;8.50;;;;;;;28.68;77.93;94608.53;5037454;28;20025;-86
2023/06/28 06:01:59;;;;;;;9.90;9.10;;;;;;;29.91;67.63;94611.34;5010309;28;20021;-83
2023/06/28 06:04:24;;;;;;;10.10;9.15;;;;;;;30.73;62.23;94611.06;5020688;28;20028;-84
2023/06/28 06:06:49;;;;;;;9.85;8.63;;;;;;;31.60;61.04;94607.75;5022470;28;20047;-85
2023/06/28 06:09:15;;;;;;;9.18;8.57;;;;;;;31.93;57.46;94608.16;5021528;28;20079;-86
2023/06/28 06:11:41;;;;;;;9.77;8.98;;;;;;;32.24;56.90;94606.16;5001707;28;20049;-86
2023/06/28 06:14:07;;;;;;;8.43;7.82;;;;;;;32.26;57.62;94603.97;5020551;28;20053;-86
2023/06/28 06:16:32;;;;;;;8.52;7.93;;;;;;;32.41;57.35;94603.50;5001290;28;20324;-87
2023/06/28 06:18:58;;;;;;;11.05;8.98;;;;;;;33.12;55.30;94602.03;5020137;28;20029;-86
2023/06/28 06:21:23;;;;;;;10.55;9.70;;;;;;;32.81;56.25;94602.25;4984850;28;20025;-88
2023/06/28 06:23:49;;;;;;;9.85;9.10;;;;;;;32.73;57.15;94594.97;5002715;28;20030;-84
2023/06/28 06:26:14;;;;;;;11.15;9.95;;;;;;;32.28;55.30;94591.03;5001233;28;20029;-85
2023/06/28 06:28:39;;;;;;;11.40;10.43;;;;;;;31.94;59.84;94596.34;5002287;28;20041;-85
2023/06/28 06:31:05;;;;;;;12.15;10.95;;;;;;;30.48;66.02;94596.44;5002035;28;20040;-88
2023/06/28 06:33:31;;;;;;;11.27;10.35;;;;;;;28.56;78.32;94599.41;5019318;28;20036;-85
2023/06/28 06:35:56;;;;;;;12.20;11.27;;;;;;;28.55;77.49;94600.47;5020153;28;20068;-86
2023/06/28 06:38:21;;;;;;;12.02;10.07;;;;;;;28.64;78.28;94591.50;5020617;28;20044;-86
2023/06/28 06:40:48;;;;;;;10.27;9.32;;;;;;;29.14;80.48;94594.41;4989387;28;20257;-84
2023/06/28 06:43:13;;;;;;;10.65;9.77;;;;;;;29.67;77.10;94594.72;5004855;28;20021;-85
2023/06/28 06:45:39;;;;;;;11.57;10.25;;;;;;;31.43;66.01;94592.41;5005677;28;20422;-82
2023/06/28 06:48:05;;;;;;;11.75;10.75;;;;;;;30.86;65.95;94601.41;4991395;28;20021;-87
2023/06/28 06:50:30;;;;;;;13.38;12.13;;;;;;;31.71;62.53;94598.34;4988635;28;20025;-84
2023/06/28 06:53:03;;;;;;;12.50;11.50;;;;;;;29.95;71.86;94588.28;5005653;28;20037;-87
2023/06/28 06:55:28;;;;;;;12.90;11.90;;;;;;;28.75;78.82;94603.63;5022175;28;20029;-88
2023/06/28 06:57:54;;;;;;;13.30;12.18;;;;;;;28.57;81.62;94600.97;5005895;28;20030;-86
2023/06/28 07:00:19;;;;;;;13.02;11.93;;;;;;;28.25;85.51;94599.09;5003995;28;20087;-80
2023/06/28 07:02:45;;;;;;;12.63;11.25;;;;;;;28.68;83.76;94597.09;4992155;28;20083;-86
2023/06/28 07:05:10;;;;;;;14.48;13.25;;;;;;;27.53;91.38;94592.31;4976801;28;20367;-85
2023/06/28 07:07:36;;;;;;;13.48;12.15;;;;;;;26.25;100.00;94606.25;5005342;28;20040;-84
2023/06/28 07:10:01;;;;;;;13.90;12.90;;;;;;;25.61;100.00;94602.63;5004752;28;20029;-86
2023/06/28 07:12:26;;;;;;;14.45;13.35;;;;;;;25.87;100.00;94600.66;4991398;28;20537;-82
2023/06/28 07:14:52;;;;;;;15.73;14.38;;;;;;;25.57;100.00;94593.63;5025114;28;20062;-85
2023/06/28 07:17:18;;;;;;;19.38;14.25;;;;;;;25.93;100.00;94602.19;5033465;28;20037;-85
2023/06/28 07:19:43;;;;;;;16.70;14.95;;;;;;;25.60;100.00;94587.78;5018920;28;20387;-86
2023/06/28 07:22:09;;;;;;;14.98;13.63;;;;;;;25.93;100.00;94593.44;5027418;28;20037;-84
2023/06/28 07:24:34;;;;;;;14.88;13.88;;;;;;;25.32;100.00;94583.09;5024821;28;20048;-87
2023/06/28 07:27:00;;;;;;;15.15;13.80;;;;;;;26.22;100.00;94583.72;5024393;28;20095;-86
2023/06/28 07:29:27;;;;;;;16.02;14.57;;;;;;;26.90;99.89;94581.81;5024228;28;20437;-87
2023/06/28 07:31:53;;;;;;;15.10;13.82;;;;;;;26.11;100.00;94584.81;5013245;28;20136;-81
2023/06/28 07:34:19;;;;;;;15.02;13.65;;;;;;;25.48;100.00;94583.81;5021816;28;20147;-86
2023/06/28 07:36:45;;;;;;;15.88;14.52;;;;;;;25.26;100.00;94583.38;4994942;28;20030;-86
2023/06/28 07:39:10;;;;;;;15.13;13.95;;;;;;;25.46;100.00;94585.97;5033236;28;20036;-86
2023/06/28 07:41:35;;;;;;;14.90;13.70;;;;;;;26.12;100.00;94578.44;5024535;28;20602;-87
2023/06/28 07:55:16;;;;;;;16.25;14.82;;;;;;;25.74;100.00;94584.53;5002784;27;20417;-83
2023/06/28 07:57:42;;;;;;;16.83;15.15;;;;;;;25.80;100.00;94589.53;5003442;28;20435;-84
2023/06/28 08:00:10;;;;;;;15.85;14.55;;;;;;;26.28;100.00;94587.13;4975362;28;20412;-84
2023/06/28 08:02:36;;;;;;;17.02;15.63;;;;;;;26.84;100.00;94590.13;5022737;28;20022;-85
2023/06/28 08:05:01;;;;;;;16.10;14.55;;;;;;;26.54;98.03;94569.91;4965146;28;20050;-84
2023/06/28 08:07:28;;;;;;;15.45;14.30;;;;;;;26.39;96.96;94599.25;4992478;28;20035;-80
2023/06/28 08:09:53;;;;;;;14.73;13.27;;;;;;;26.49;97.81;94586.66;4974745;28;20038;-85
2023/06/28 08:12:19;;;;;;;15.73;14.48;;;;;;;26.62;100.00;94572.75;4992851;28;20027;-84
2023/06/28 08:14:45;;;;;;;15.13;14.10;;;;;;;26.33;100.00;94581.78;4964968;28;20488;-84
2023/06/28 08:17:10;;;;;;;14.68;13.25;;;;;;;26.59;99.25;94581.28;4999783;28;20093;-84
2023/06/28 08:19:36;;;;;;;13.73;12.73;;;;;;;26.52;99.48;94583.47;4973955;28;20030;-85
2023/06/28 08:22:03;;;;;;;16.00;13.48;;;;;;;26.21;95.79;94587.44;4974848;28;20089;-82
2023/06/28 08:24:29;;;;;;;12.98;12.05;;;;;;;26.55;99.56;94584.78;4992103;28;20437;-78
2023/06/28 08:26:54;;;;;;;14.05;12.43;;;;;;;26.67;100.00;94578.03;4965746;28;20030;-85
2023/06/28 08:29:21;;;;;;;12.88;10.80;;;;;;;26.48;98.40;94571.81;4981947;28;20031;-86
2023/06/28 08:31:46;;;;;;;14.13;12.90;;;;;;;26.39;100.00;94578.00;4990538;28;20042;-83
2023/06/28 08:34:11;;;;;;;13.68;12.38;;;;;;;26.14;100.00;94584.25;4992002;28;20030;-88
2023/06/28 08:36:37;;;;;;;14.10;12.88;;;;;;;26.31;99.60;94571.41;4973074;28;20034;-86
2023/06/28 08:39:02;;;;;;;14.00;12.52;;;;;;;26.99;97.49;94566.84;4997170;28;20619;-85
2023/06/28 08:41:28;;;;;;;13.63;12.45;;;;;;;26.98;97.21;94567.91;4997722;28;20027;-85
2023/06/28 08:43:54;;;;;;;13.93;12.73;;;;;;;26.90;100.00;94567.72;4977321;28;20590;-85
2023/06/28 08:46:19;;;;;;;14.18;12.85;;;;;;;26.52;100.00;94572.81;4965599;28;20413;-84
2023/06/28 08:48:48;;;;;;;13.98;12.88;;;;;;;26.29;98.67;94560.28;4974485;28;20084;-88
2023/06/28 08:51:15;;;;;;;13.82;12.52;;;;;;;26.30;100.00;94561.84;4968518;28;20044;-85
2023/06/28 08:53:44;;;;;;;13.43;12.32;;;;;;;26.39;98.99;94556.75;4988184;28;20059;-86
2023/06/28 08:56:09;;;;;;;;;;;;;;;26.97;97.83;94562.88;4963303;28;20101;-90
2023/06/28 08:58:35;;;;;;;13.82;12.73;;;;;;;26.06;93.32;94555.66;4958262;28;19922;-80
2023/06/28 09:01:01;;;;;;;13.40;12.30;;;;;;;26.54;93.55;94546.00;4960924;28;20050;-83
2023/06/28 09:03:28;;;;;;;12.88;11.70;;;;;;;26.87;94.77;94549.69;4962743;28;20031;-82
2023/06/28 09:05:54;;;;;;;13.27;12.20;;;;;;;27.18;93.33;94554.38;4960790;28;20081;-84
2023/06/28 09:08:19;;;;;;;13.00;11.73;;;;;;;27.32;94.54;94549.19;4954998;28;20493;-85
2023/06/28 09:10:46;;;;;;;13.00;11.93;;;;;;;27.45;95.48;94548.50;4961468;28;20070;-88
2023/06/28 09:13:19;;;;;;;14.65;13.23;;;;;;;26.68;92.50;94545.03;4962504;28;20054;-86
2023/06/28 09:15:45;;;;;;;13.63;12.35;;;;;;;26.79;100.00;94547.59;4962759;28;21830;-86
2023/06/28 09:18:10;;;;;;;13.45;12.30;;;;;;;26.60;95.35;94537.69;4950453;28;20054;-87
2023/06/28 09:20:36;;;;;;;14.73;12.73;;;;;;;26.65;89.41;94534.97;4962038;28;20424;-83
2023/06/28 09:23:02;;;;;;;13.23;12.15;;;;;;;26.99;91.00;94532.25;4944404;28;20065;-82
2023/06/28 09:25:29;;;;;;;12.48;11.30;;;;;;;27.19;95.75;94536.56;4955633;28;20555;-85
2023/06/28 09:27:59;;;;;;;12.02;11.05;;;;;;;27.36;94.25;94534.19;4963696;28;20038;-86
2023/06/28 09:30:24;;;;;;;11.38;10.65;;;;;;;26.85;96.60;94535.88;4954214;28;20034;-84
2023/06/28 09:32:51;;;;;;;12.45;11.38;;;;;;;26.54;94.53;94538.00;4958756;28;20129;-85
2023/06/28 09:35:20;;;;;;;13.13;12.05;;;;;;;26.69;89.60;94537.84;4961117;28;20113;-86
2023/06/28 09:37:58;;;;;;;12.63;11.40;;;;;;;26.90;94.40;94531.31;4961899;28;20039;-84
2023/06/28 09:40:23;;;;;;;12.35;11.45;;;;;;;26.98;92.78;94520.03;4950116;28;20946;-84
2023/06/28 09:42:50;;;;;;;12.07;11.02;;;;;;;27.12;91.37;94531.59;4957454;28;20177;-91
2023/06/28 09:45:30;;;;;;;13.25;12.00;;;;;;;27.37;98.13;94533.13;4951826;28;20162;-86
2023/06/28 09:47:58;;;;;;;12.85;11.60;;;;;;;27.24;91.60;94523.19;4962837;28;20027;-86
2023/06/28 09:50:52;;;;;;;11.80;10.90;;;;;;;27.33;90.47;94521.47;4953308;28;20125;-89
2023/06/28 09:53:21;;;;;;;12.02;10.98;;;;;;;27.28;88.48;94526.88;4956155;28;20043;-83
2023/06/28 09:55:49;;;;;;;11.43;10.70;;;;;;;27.37;86.40;94519.03;4945783;28;20035;-88
2023/06/28 09:58:21;;;;;;;12.27;11.23;;;;;;;27.17;86.65;94515.56;4953171;28;20214;-85
2023/06/28 10:00:48;;;;;;;12.02;11.18;;;;;;;27.36;84.33;94512.13;4986216;28;20538;-82
2023/06/28 10:03:15;;;;;;;12.02;11.02;;;;;;;27.09;82.13;94502.91;4976869;28;20031;-85
2023/06/28 10:05:43;;;;;;;11.98;10.95;;;;;;;27.22;87.63;94501.41;4943738;28;20031;-86
2023/06/28 10:08:10;;;;;;;12.32;11.50;;;;;;;27.19;79.94;94501.97;4951188;28;20468;-85
2023/06/28 10:10:37;;;;;;;11.57;10.77;;;;;;;27.12;80.40;94501.53;4959211;28;20030;-84
2023/06/28 10:13:05;;;;;;;12.68;11.68;;;;;;;27.12;86.70;94509.50;4953632;28;20038;-85
2023/06/28 10:15:35;;;;;;;11.52;10.57;;;;;;;27.07;86.37;94498.91;4964301;28;20048;-88
2023/06/28 10:18:02;;;;;;;12.65;11.55;;;;;;;27.18;84.96;94501.19;4961280;28;20062;-89
2023/06/28 10:20:27;;;;;;;13.10;12.00;;;;;;;27.03;89.17;94495.25;4960425;28;20453;-85
2023/06/28 10:22:54;;;;;;;12.32;11.23;;;;;;;27.28;85.71;94488.81;4943667;28;20415;-84
2023/06/28 10:25:22;;;;;;;12.95;11.82;;;;;;;27.40;90.36;94499.84;4953240;28;20034;-87
2023/06/28 10:27:47;;;;;;;12.40;11.32;;;;;;;27.09;88.05;94499.44;4959080;28;20027;-85
2023/06/28 10:30:13;;;;;;;13.15;12.02;;;;;;;27.27;87.73;94509.31;4944748;28;20031;-87
2023/06/28 10:32:39;;;;;;;12.77;11.77;;;;;;;27.28;83.53;94502.94;4942940;28;20030;-86
2023/06/28 10:35:06;;;;;;;12.90;11.98;;;;;;;27.18;84.85;94492.41;4952455;28;20120;-85
2023/06/28 10:37:32;;;;;;;12.10;11.23;;;;;;;27.26;85.96;94485.66;4949165;28;20500;-86
2023/06/28 10:39:58;;;;;;;12.32;11.27;;;;;;;27.07;90.69;94501.56;4960445;28;20582;-84
2023/06/28 10:42:23;;;;;;;12.82;11.73;;;;;;;26.92;88.76;94499.91;4956272;28;20080;-85
2023/06/28 10:44:57;;;;;;;12.32;11.43;;;;;;;27.04;87.51;94496.81;4948212;28;20030;-86
2023/06/28 10:47:23;;;;;;;13.77;11.50;;;;;;;27.20;88.82;94493.69;4964203;28;20198;-83
2023/06/28 10:50:10;;;;;;;13.00;11.73;;;;;;;27.51;90.47;94503.97;4945224;28;20039;-87
2023/06/28 10:52:46;;;;;;;12.32;11.48;;;;;;;27.48;87.21;94492.06;4953046;28;20023;-82
2023/06/28 10:55:12;;;;;;;12.35;11.25;;;;;;;27.13;88.24;94497.81;4944188;28;20053;-86
2023/06/28 10:57:38;;;;;;;11.80;10.90;;;;;;;27.28;89.58;94496.81;4947880;28;20399;-84
2023/06/28 11:00:25;;;;;;;12.13;11.23;;;;;;;27.05;83.21;94490.44;4960721;28;20412;-88
2023/06/28 11:02:55;;;;;;;12.15;11.35;;;;;;;27.34;84.29;94488.47;4957837;28;20034;-88
2023/06/28 11:05:37;;;;;;;12.20;11.40;;;;;;;27.37;86.57;94485.25;4960637;28;20043;-84
2023/06/28 11:08:08;;;;;;;11.60;10.75;;;;;;;27.36;87.45;94482.84;4944070;28;20073;-84
2023/06/28 11:10:58;;;;;;;13.00;12.00;;;;;;;27.05;84.55;94482.47;4955600;28;20555;-89
2023/06/28 11:13:39;;;;;;;12.40;11.50;;;;;;;27.09;82.96;94481.63;4960660;28;20121;-86
2023/06/28 11:16:11;;;;;;;12.48;11.38;;;;;;;27.23;84.76;94484.34;4960063;28;20652;-83
2023/06/28 11:18:38;;;;;;;11.45;10.65;;;;;;;27.41;82.68;94480.13;4960808;28;20405;-88
2023/06/28 11:21:04;;;;;;;12.40;11.50;;;;;;;26.89;82.54;94478.41;4960864;28;20871;-85
2023/06/28 11:23:36;;;;;;;12.63;11.65;;;;;;;27.01;82.58;94473.47;4943430;28;20412;-86
2023/06/28 11:26:04;;;;;;;12.85;11.50;;;;;;;26.79;81.61;94465.97;4961334;28;20046;-89
2023/06/28 11:28:31;;;;;;;12.23;11.27;;;;;;;26.70;82.57;94460.50;4978007;28;20027;-87
2023/06/28 11:31:12;;;;;;;12.25;11.18;;;;;;;27.10;84.12;94463.78;4961867;28;20642;-88
2023/06/28 11:33:38;;;;;;;11.82;10.68;;;;;;;27.58;86.25;94461.84;4959330;28;20038;-85
2023/06/28 11:36:04;;;;;;;12.27;11.35;;;;;;;27.24;81.64;94456.69;4959544;28;20451;-81
2023/06/28 11:38:31;;;;;;;11.60;10.63;;;;;;;27.28;82.80;94452.38;4960041;28;20045;-78
2023/06/28 11:40:57;;;;;;;11.15;10.35;;;;;;;27.63;83.28;94462.53;4956085;28;20461;-84
2023/06/28 11:43:23;;;;;;;11.45;10.70;;;;;;;27.69;83.81;94464.06;4944031;28;20027;-79
2023/06/28 11:45:52;;;;;;;12.23;11.23;;;;;;;27.47;82.45;94461.19;4942469;28;20156;-87
2023/06/28 11:48:33;;;;;;;12.90;11.35;;;;;;;27.64;83.66;94464.13;4944578;28;20023;-88